sensor_id;sensor_type;location;lat;lon;timestamp;P1;durP1;ratioP1;P2;durP2;ratioP2
85318;SDS011;75722;49.004;12.120;2024-02-23T00:02:08;1.83;;;0.68;;
85318;SDS011;75722;49.004;12.120;2024-02-23T00:04:33;0.85;;;0.60;;
85318;SDS011;75722;49.004;12.120;2024-02-23T00:06:58;0.98;;;0.60;;
85318;SDS011;75722;49.004;12.120;2024-02-23T00:09:24;2.30;;;0.50;;
85318;SDS011;75722;49.004;12.120;2024-02-23T00:11:49;0.75;;;0.50;;
85318;SDS011;75722;49.004;12.120;2024-02-23T00:14:15;0.70;;;0.40;;
85318;SDS011;75722;49.004;12.120;2024-02-23T00:16:43;0.40;;;0.35;;
85318;SDS011;75722;49.004;12.120;2024-02-23T00:19:09;1.30;;;0.40;;
85318;SDS011;75722;49.004;12.120;2024-02-23T00:21:35;0.57;;;0.40;;
85318;SDS011;75722;49.004;12.120;2024-02-23T00:24:01;0.30;;;0.28;;
85318;SDS011;75722;49.004;12.120;2024-02-23T00:26:26;0.30;;;0.20;;
85318;SDS011;75722;49.004;12.120;2024-02-23T00:28:54;0.75;;;0.50;;
85318;SDS011;75722;49.004;12.120;2024-02-23T00:31:19;0.40;;;0.38;;
85318;SDS011;75722;49.004;12.120;2024-02-23T00:33:44;3.00;;;0.40;;
85318;SDS011;75722;49.004;12.120;2024-02-23T00:36:10;1.35;;;0.47;;
85318;SDS011;75722;49.004;12.120;2024-02-23T00:38:35;0.40;;;0.30;;
85318;SDS011;75722;49.004;12.120;2024-02-23T00:41:00;1.05;;;0.50;;
85318;SDS011;75722;49.004;12.120;2024-02-23T00:43:26;0.30;;;0.20;;
85318;SDS011;75722;49.004;12.120;2024-02-23T00:45:54;0.52;;;0.30;;
85318;SDS011;75722;49.004;12.120;2024-02-23T00:48:19;0.93;;;0.50;;
85318;SDS011;75722;49.004;12.120;2024-02-23T00:50:45;0.60;;;0.50;;
85318;SDS011;75722;49.004;12.120;2024-02-23T00:53:10;2.53;;;0.53;;
85318;SDS011;75722;49.004;12.120;2024-02-23T00:55:35;0.50;;;0.30;;
85318;SDS011;75722;49.004;12.120;2024-02-23T00:58:01;0.40;;;0.40;;
85318;SDS011;75722;49.004;12.120;2024-02-23T01:00:26;0.77;;;0.53;;
85318;SDS011;75722;49.004;12.120;2024-02-23T01:02:52;0.82;;;0.43;;
85318;SDS011;75722;49.004;12.120;2024-02-23T01:05:17;0.40;;;0.30;;
85318;SDS011;75722;49.004;12.120;2024-02-23T01:07:42;0.30;;;0.20;;
85318;SDS011;75722;49.004;12.120;2024-02-23T01:10:08;0.40;;;0.30;;
85318;SDS011;75722;49.004;12.120;2024-02-23T01:12:34;0.77;;;0.32;;
85318;SDS011;75722;49.004;12.120;2024-02-23T01:15:00;0.65;;;0.38;;
85318;SDS011;75722;49.004;12.120;2024-02-23T01:17:25;0.80;;;0.55;;
85318;SDS011;75722;49.004;12.120;2024-02-23T01:19:51;0.40;;;0.40;;
85318;SDS011;75722;49.004;12.120;2024-02-23T01:22:17;3.40;;;0.30;;
85318;SDS011;75722;49.004;12.120;2024-02-23T01:24:42;1.55;;;0.40;;
85318;SDS011;75722;49.004;12.120;2024-02-23T01:27:08;1.88;;;0.30;;
85318;SDS011;75722;49.004;12.120;2024-02-23T01:29:33;1.13;;;0.45;;
85318;SDS011;75722;49.004;12.120;2024-02-23T01:31:59;1.35;;;0.40;;
85318;SDS011;75722;49.004;12.120;2024-02-23T01:34:25;0.35;;;0.30;;
85318;SDS011;75722;49.004;12.120;2024-02-23T01:36:50;0.65;;;0.50;;
85318;SDS011;75722;49.004;12.120;2024-02-23T01:39:16;0.30;;;0.30;;
85318;SDS011;75722;49.004;12.120;2024-02-23T01:41:41;0.20;;;0.20;;
85318;SDS011;75722;49.004;12.120;2024-02-23T01:44:08;0.20;;;0.20;;
85318;SDS011;75722;49.004;12.120;2024-02-23T01:46:34;0.47;;;0.10;;
85318;SDS011;75722;49.004;12.120;2024-02-23T01:49:00;0.40;;;0.00;;
85318;SDS011;75722;49.004;12.120;2024-02-23T01:51:26;0.15;;;0.15;;
85318;SDS011;75722;49.004;12.120;2024-02-23T01:53:51;0.17;;;0.03;;
85318;SDS011;75722;49.004;12.120;2024-02-23T01:56:17;0.45;;;0.10;;
85318;SDS011;75722;49.004;12.120;2024-02-23T01:58:42;0.17;;;0.05;;
85318;SDS011;75722;49.004;12.120;2024-02-23T02:01:08;0.00;;;0.00;;
85318;SDS011;75722;49.004;12.120;2024-02-23T02:03:33;0.20;;;0.10;;
85318;SDS011;75722;49.004;12.120;2024-02-23T02:05:59;0.10;;;0.10;;
85318;SDS011;75722;49.004;12.120;2024-02-23T02:08:25;0.00;;;0.00;;
85318;SDS011;75722;49.004;12.120;2024-02-23T02:10:51;0.00;;;0.00;;
85318;SDS011;75722;49.004;12.120;2024-02-23T02:13:17;0.30;;;0.00;;
85318;SDS011;75722;49.004;12.120;2024-02-23T02:15:42;0.30;;;0.10;;
85318;SDS011;75722;49.004;12.120;2024-02-23T02:18:09;0.05;;;0.00;;
85318;SDS011;75722;49.004;12.120;2024-02-23T02:20:34;0.28;;;0.05;;
85318;SDS011;75722;49.004;12.120;2024-02-23T02:23:01;1.85;;;0.10;;
85318;SDS011;75722;49.004;12.120;2024-02-23T02:25:27;0.00;;;0.00;;
85318;SDS011;75722;49.004;12.120;2024-02-23T02:27:52;0.07;;;0.00;;
85318;SDS011;75722;49.004;12.120;2024-02-23T02:30:17;0.00;;;0.00;;
85318;SDS011;75722;49.004;12.120;2024-02-23T02:32:43;0.28;;;0.10;;
85318;SDS011;75722;49.004;12.120;2024-02-23T02:35:10;0.10;;;0.10;;
85318;SDS011;75722;49.004;12.120;2024-02-23T02:37:36;0.00;;;0.00;;
85318;SDS011;75722;49.004;12.120;2024-02-23T02:40:02;0.00;;;0.00;;
85318;SDS011;75722;49.004;12.120;2024-02-23T02:42:28;0.00;;;0.00;;
85318;SDS011;75722;49.004;12.120;2024-02-23T02:44:54;0.10;;;0.10;;
85318;SDS011;75722;49.004;12.120;2024-02-23T02:47:19;0.03;;;0.03;;
85318;SDS011;75722;49.004;12.120;2024-02-23T02:49:44;0.50;;;0.38;;
85318;SDS011;75722;49.004;12.120;2024-02-23T02:52:10;0.00;;;0.00;;
85318;SDS011;75722;49.004;12.120;2024-02-23T02:54:35;0.20;;;0.10;;
85318;SDS011;75722;49.004;12.120;2024-02-23T02:57:00;0.00;;;0.00;;
85318;SDS011;75722;49.004;12.120;2024-02-23T02:59:26;0.00;;;0.00;;
85318;SDS011;75722;49.004;12.120;2024-02-23T03:01:51;0.35;;;0.10;;
85318;SDS011;75722;49.004;12.120;2024-02-23T03:04:17;0.15;;;0.00;;
85318;SDS011;75722;49.004;12.120;2024-02-23T03:06:42;3.42;;;0.10;;
85318;SDS011;75722;49.004;12.120;2024-02-23T03:09:07;0.20;;;0.20;;
85318;SDS011;75722;49.004;12.120;2024-02-23T03:11:33;0.00;;;0.00;;
85318;SDS011;75722;49.004;12.120;2024-02-23T03:13:58;0.00;;;0.00;;
85318;SDS011;75722;49.004;12.120;2024-02-23T03:16:24;0.55;;;0.28;;
85318;SDS011;75722;49.004;12.120;2024-02-23T03:18:51;0.00;;;0.00;;
85318;SDS011;75722;49.004;12.120;2024-02-23T03:21:17;0.25;;;0.15;;
85318;SDS011;75722;49.004;12.120;2024-02-23T03:23:42;0.20;;;0.10;;
85318;SDS011;75722;49.004;12.120;2024-02-23T03:26:07;2.50;;;0.20;;
85318;SDS011;75722;49.004;12.120;2024-02-23T03:28:33;0.00;;;0.00;;
85318;SDS011;75722;49.004;12.120;2024-02-23T03:30:59;1.17;;;0.50;;
85318;SDS011;75722;49.004;12.120;2024-02-23T03:33:25;5.25;;;0.82;;
85318;SDS011;75722;49.004;12.120;2024-02-23T03:35:50;0.70;;;0.20;;
85318;SDS011;75722;49.004;12.120;2024-02-23T03:38:16;0.05;;;0.00;;
85318;SDS011;75722;49.004;12.120;2024-02-23T03:40:41;0.07;;;0.07;;
85318;SDS011;75722;49.004;12.120;2024-02-23T03:43:07;0.45;;;0.20;;
85318;SDS011;75722;49.004;12.120;2024-02-23T03:45:32;0.15;;;0.10;;
85318;SDS011;75722;49.004;12.120;2024-02-23T03:47:58;0.10;;;0.10;;
85318;SDS011;75722;49.004;12.120;2024-02-23T03:50:24;1.35;;;0.10;;
85318;SDS011;75722;49.004;12.120;2024-02-23T03:52:50;0.10;;;0.10;;
85318;SDS011;75722;49.004;12.120;2024-02-23T03:55:15;0.35;;;0.20;;
85318;SDS011;75722;49.004;12.120;2024-02-23T03:57:40;0.13;;;0.13;;
85318;SDS011;75722;49.004;12.120;2024-02-23T04:00:06;1.10;;;0.20;;
85318;SDS011;75722;49.004;12.120;2024-02-23T04:02:32;0.10;;;0.10;;
85318;SDS011;75722;49.004;12.120;2024-02-23T04:04:59;1.30;;;0.10;;
85318;SDS011;75722;49.004;12.120;2024-02-23T04:07:24;0.30;;;0.17;;
85318;SDS011;75722;49.004;12.120;2024-02-23T04:09:49;0.93;;;0.10;;
85318;SDS011;75722;49.004;12.120;2024-02-23T04:12:20;0.38;;;0.10;;
85318;SDS011;75722;49.004;12.120;2024-02-23T04:14:48;0.10;;;0.10;;
85318;SDS011;75722;49.004;12.120;2024-02-23T04:17:13;0.65;;;0.20;;
85318;SDS011;75722;49.004;12.120;2024-02-23T04:19:40;0.30;;;0.20;;
85318;SDS011;75722;49.004;12.120;2024-02-23T04:22:05;0.50;;;0.20;;
85318;SDS011;75722;49.004;12.120;2024-02-23T04:24:33;0.45;;;0.08;;
85318;SDS011;75722;49.004;12.120;2024-02-23T04:26:59;0.38;;;0.20;;
85318;SDS011;75722;49.004;12.120;2024-02-23T04:29:24;3.92;;;0.40;;
85318;SDS011;75722;49.004;12.120;2024-02-23T04:31:50;2.10;;;0.30;;
85318;SDS011;75722;49.004;12.120;2024-02-23T04:34:15;1.20;;;0.20;;
85318;SDS011;75722;49.004;12.120;2024-02-23T04:36:41;1.42;;;0.20;;
85318;SDS011;75722;49.004;12.120;2024-02-23T04:39:07;2.28;;;0.20;;
85318;SDS011;75722;49.004;12.120;2024-02-23T04:41:33;0.90;;;0.10;;
85318;SDS011;75722;49.004;12.120;2024-02-23T04:43:58;3.70;;;0.20;;
85318;SDS011;75722;49.004;12.120;2024-02-23T04:46:25;1.73;;;0.10;;
85318;SDS011;75722;49.004;12.120;2024-02-23T04:48:51;0.40;;;0.10;;
85318;SDS011;75722;49.004;12.120;2024-02-23T04:51:16;1.00;;;0.10;;
85318;SDS011;75722;49.004;12.120;2024-02-23T04:53:41;0.70;;;0.28;;
85318;SDS011;75722;49.004;12.120;2024-02-23T04:56:07;0.45;;;0.20;;
85318;SDS011;75722;49.004;12.120;2024-02-23T04:58:33;0.75;;;0.20;;
85318;SDS011;75722;49.004;12.120;2024-02-23T05:00:58;1.20;;;0.17;;
85318;SDS011;75722;49.004;12.120;2024-02-23T05:03:23;0.82;;;0.20;;
85318;SDS011;75722;49.004;12.120;2024-02-23T05:05:49;1.90;;;0.20;;
85318;SDS011;75722;49.004;12.120;2024-02-23T05:08:19;0.10;;;0.10;;
85318;SDS011;75722;49.004;12.120;2024-02-23T05:10:45;1.98;;;0.20;;
85318;SDS011;75722;49.004;12.120;2024-02-23T05:13:11;1.38;;;0.20;;
85318;SDS011;75722;49.004;12.120;2024-02-23T05:15:37;1.73;;;0.35;;
85318;SDS011;75722;49.004;12.120;2024-02-23T05:18:02;1.52;;;0.20;;
85318;SDS011;75722;49.004;12.120;2024-02-23T05:20:28;0.80;;;0.22;;
85318;SDS011;75722;49.004;12.120;2024-02-23T05:22:53;0.95;;;0.30;;
85318;SDS011;75722;49.004;12.120;2024-02-23T05:25:19;0.20;;;0.10;;
85318;SDS011;75722;49.004;12.120;2024-02-23T05:27:44;0.57;;;0.20;;
85318;SDS011;75722;49.004;12.120;2024-02-23T05:30:09;0.33;;;0.23;;
85318;SDS011;75722;49.004;12.120;2024-02-23T05:32:35;1.45;;;0.20;;
85318;SDS011;75722;49.004;12.120;2024-02-23T05:35:01;0.53;;;0.30;;
85318;SDS011;75722;49.004;12.120;2024-02-23T05:37:26;0.28;;;0.20;;
85318;SDS011;75722;49.004;12.120;2024-02-23T05:39:52;0.55;;;0.40;;
85318;SDS011;75722;49.004;12.120;2024-02-23T05:42:18;0.38;;;0.35;;
85318;SDS011;75722;49.004;12.120;2024-02-23T05:44:44;1.40;;;0.40;;
85318;SDS011;75722;49.004;12.120;2024-02-23T05:47:10;0.20;;;0.20;;
85318;SDS011;75722;49.004;12.120;2024-02-23T05:49:35;1.00;;;0.43;;
85318;SDS011;75722;49.004;12.120;2024-02-23T05:52:01;0.28;;;0.28;;
85318;SDS011;75722;49.004;12.120;2024-02-23T05:54:26;0.80;;;0.45;;
85318;SDS011;75722;49.004;12.120;2024-02-23T05:56:52;0.30;;;0.30;;
85318;SDS011;75722;49.004;12.120;2024-02-23T05:59:17;1.08;;;0.43;;
85318;SDS011;75722;49.004;12.120;2024-02-23T06:01:42;2.47;;;0.30;;
85318;SDS011;75722;49.004;12.120;2024-02-23T06:04:08;0.25;;;0.20;;
85318;SDS011;75722;49.004;12.120;2024-02-23T06:06:34;0.30;;;0.30;;
85318;SDS011;75722;49.004;12.120;2024-02-23T06:08:59;2.50;;;0.60;;
85318;SDS011;75722;49.004;12.120;2024-02-23T06:11:25;4.18;;;0.57;;
85318;SDS011;75722;49.004;12.120;2024-02-23T06:13:50;3.72;;;0.93;;
85318;SDS011;75722;49.004;12.120;2024-02-23T06:16:16;2.22;;;0.77;;
85318;SDS011;75722;49.004;12.120;2024-02-23T06:18:41;0.77;;;0.30;;
85318;SDS011;75722;49.004;12.120;2024-02-23T06:21:13;0.30;;;0.28;;
85318;SDS011;75722;49.004;12.120;2024-02-23T06:23:45;0.30;;;0.20;;
85318;SDS011;75722;49.004;12.120;2024-02-23T06:26:11;0.52;;;0.30;;
85318;SDS011;75722;49.004;12.120;2024-02-23T06:28:37;2.47;;;0.20;;
85318;SDS011;75722;49.004;12.120;2024-02-23T06:31:04;0.95;;;0.20;;
85318;SDS011;75722;49.004;12.120;2024-02-23T06:33:30;0.68;;;0.17;;
85318;SDS011;75722;49.004;12.120;2024-02-23T06:35:56;0.77;;;0.30;;
85318;SDS011;75722;49.004;12.120;2024-02-23T06:38:21;0.43;;;0.30;;
85318;SDS011;75722;49.004;12.120;2024-02-23T06:40:47;3.20;;;0.30;;
85318;SDS011;75722;49.004;12.120;2024-02-23T06:43:12;2.38;;;0.38;;
85318;SDS011;75722;49.004;12.120;2024-02-23T06:45:38;1.67;;;0.40;;
85318;SDS011;75722;49.004;12.120;2024-02-23T06:48:03;0.35;;;0.20;;
85318;SDS011;75722;49.004;12.120;2024-02-23T06:50:29;1.05;;;0.30;;
85318;SDS011;75722;49.004;12.120;2024-02-23T06:52:54;0.47;;;0.45;;
85318;SDS011;75722;49.004;12.120;2024-02-23T06:55:20;1.80;;;0.13;;
85318;SDS011;75722;49.004;12.120;2024-02-23T06:57:45;0.45;;;0.20;;
85318;SDS011;75722;49.004;12.120;2024-02-23T07:00:12;3.00;;;0.35;;
85318;SDS011;75722;49.004;12.120;2024-02-23T07:02:38;2.50;;;0.40;;
85318;SDS011;75722;49.004;12.120;2024-02-23T07:05:03;0.38;;;0.22;;
85318;SDS011;75722;49.004;12.120;2024-02-23T07:07:29;0.98;;;0.30;;
85318;SDS011;75722;49.004;12.120;2024-02-23T07:09:55;0.52;;;0.30;;
85318;SDS011;75722;49.004;12.120;2024-02-23T07:12:21;1.75;;;0.38;;
85318;SDS011;75722;49.004;12.120;2024-02-23T07:14:46;0.20;;;0.20;;
85318;SDS011;75722;49.004;12.120;2024-02-23T07:17:12;0.63;;;0.50;;
85318;SDS011;75722;49.004;12.120;2024-02-23T07:19:37;2.45;;;0.20;;
85318;SDS011;75722;49.004;12.120;2024-02-23T07:22:03;0.55;;;0.20;;
85318;SDS011;75722;49.004;12.120;2024-02-23T07:24:28;0.20;;;0.20;;
85318;SDS011;75722;49.004;12.120;2024-02-23T07:26:54;1.38;;;0.30;;
85318;SDS011;75722;49.004;12.120;2024-02-23T07:29:19;0.50;;;0.30;;
85318;SDS011;75722;49.004;12.120;2024-02-23T07:31:44;0.32;;;0.32;;
85318;SDS011;75722;49.004;12.120;2024-02-23T07:34:10;0.40;;;0.40;;
85318;SDS011;75722;49.004;12.120;2024-02-23T07:36:35;0.60;;;0.60;;
85318;SDS011;75722;49.004;12.120;2024-02-23T07:39:00;1.45;;;0.63;;
85318;SDS011;75722;49.004;12.120;2024-02-23T07:41:26;0.30;;;0.30;;
85318;SDS011;75722;49.004;12.120;2024-02-23T07:43:51;1.70;;;0.50;;
85318;SDS011;75722;49.004;12.120;2024-02-23T07:46:17;0.40;;;0.30;;
85318;SDS011;75722;49.004;12.120;2024-02-23T07:48:42;1.10;;;0.40;;
85318;SDS011;75722;49.004;12.120;2024-02-23T07:51:07;0.30;;;0.30;;
85318;SDS011;75722;49.004;12.120;2024-02-23T07:53:33;0.70;;;0.38;;
85318;SDS011;75722;49.004;12.120;2024-02-23T07:55:59;0.67;;;0.23;;
85318;SDS011;75722;49.004;12.120;2024-02-23T07:58:27;0.47;;;0.20;;
85318;SDS011;75722;49.004;12.120;2024-02-23T08:00:52;0.57;;;0.30;;
85318;SDS011;75722;49.004;12.120;2024-02-23T08:03:18;0.82;;;0.40;;
85318;SDS011;75722;49.004;12.120;2024-02-23T08:05:44;0.10;;;0.10;;
85318;SDS011;75722;49.004;12.120;2024-02-23T08:08:09;1.27;;;0.40;;
85318;SDS011;75722;49.004;12.120;2024-02-23T08:10:35;1.07;;;0.37;;
85318;SDS011;75722;49.004;12.120;2024-02-23T08:13:00;2.03;;;0.43;;
85318;SDS011;75722;49.004;12.120;2024-02-23T08:15:25;0.30;;;0.13;;
85318;SDS011;75722;49.004;12.120;2024-02-23T08:17:51;0.50;;;0.30;;
85318;SDS011;75722;49.004;12.120;2024-02-23T08:20:16;0.73;;;0.35;;
85318;SDS011;75722;49.004;12.120;2024-02-23T08:22:41;4.07;;;0.50;;
85318;SDS011;75722;49.004;12.120;2024-02-23T08:25:07;0.32;;;0.22;;
85318;SDS011;75722;49.004;12.120;2024-02-23T08:27:33;0.57;;;0.40;;
85318;SDS011;75722;49.004;12.120;2024-02-23T08:29:58;0.55;;;0.38;;
85318;SDS011;75722;49.004;12.120;2024-02-23T08:32:24;0.77;;;0.50;;
85318;SDS011;75722;49.004;12.120;2024-02-23T08:34:49;1.40;;;0.50;;
85318;SDS011;75722;49.004;12.120;2024-02-23T08:37:17;2.13;;;0.35;;
85318;SDS011;75722;49.004;12.120;2024-02-23T08:39:43;2.90;;;0.55;;
85318;SDS011;75722;49.004;12.120;2024-02-23T08:42:09;0.70;;;0.50;;
85318;SDS011;75722;49.004;12.120;2024-02-23T08:44:34;0.70;;;0.50;;
85318;SDS011;75722;49.004;12.120;2024-02-23T08:47:00;1.75;;;0.50;;
85318;SDS011;75722;49.004;12.120;2024-02-23T08:49:27;1.48;;;0.63;;
85318;SDS011;75722;49.004;12.120;2024-02-23T08:51:52;2.70;;;0.60;;
85318;SDS011;75722;49.004;12.120;2024-02-23T08:54:17;0.65;;;0.40;;
85318;SDS011;75722;49.004;12.120;2024-02-23T08:56:43;0.40;;;0.40;;
85318;SDS011;75722;49.004;12.120;2024-02-23T08:59:08;1.95;;;0.95;;
85318;SDS011;75722;49.004;12.120;2024-02-23T09:01:34;0.98;;;0.50;;
85318;SDS011;75722;49.004;12.120;2024-02-23T09:04:00;1.83;;;0.45;;
85318;SDS011;75722;49.004;12.120;2024-02-23T09:06:26;0.60;;;0.47;;
85318;SDS011;75722;49.004;12.120;2024-02-23T09:08:51;1.52;;;0.63;;
85318;SDS011;75722;49.004;12.120;2024-02-23T09:11:17;1.70;;;0.60;;
85318;SDS011;75722;49.004;12.120;2024-02-23T09:13:42;0.40;;;0.40;;
85318;SDS011;75722;49.004;12.120;2024-02-23T09:16:08;0.52;;;0.40;;
85318;SDS011;75722;49.004;12.120;2024-02-23T09:18:34;3.22;;;0.47;;
85318;SDS011;75722;49.004;12.120;2024-02-23T09:21:00;0.77;;;0.30;;
85318;SDS011;75722;49.004;12.120;2024-02-23T09:23:25;2.60;;;0.50;;
85318;SDS011;75722;49.004;12.120;2024-02-23T09:25:51;0.77;;;0.35;;
85318;SDS011;75722;49.004;12.120;2024-02-23T09:28:16;0.43;;;0.33;;
85318;SDS011;75722;49.004;12.120;2024-02-23T09:30:41;2.97;;;0.43;;
85318;SDS011;75722;49.004;12.120;2024-02-23T09:33:07;1.90;;;0.38;;
85318;SDS011;75722;49.004;12.120;2024-02-23T09:35:33;0.70;;;0.25;;
85318;SDS011;75722;49.004;12.120;2024-02-23T09:37:58;3.42;;;0.80;;
85318;SDS011;75722;49.004;12.120;2024-02-23T09:40:24;1.80;;;0.77;;
85318;SDS011;75722;49.004;12.120;2024-02-23T09:42:55;1.52;;;0.38;;
85318;SDS011;75722;49.004;12.120;2024-02-23T09:45:22;1.70;;;0.50;;
85318;SDS011;75722;49.004;12.120;2024-02-23T09:47:48;0.98;;;0.95;;
85318;SDS011;75722;49.004;12.120;2024-02-23T09:50:14;1.48;;;0.80;;
85318;SDS011;75722;49.004;12.120;2024-02-23T09:52:40;3.05;;;0.60;;
85318;SDS011;75722;49.004;12.120;2024-02-23T09:55:06;1.55;;;0.35;;
85318;SDS011;75722;49.004;12.120;2024-02-23T09:57:31;0.95;;;0.57;;
85318;SDS011;75722;49.004;12.120;2024-02-23T09:59:58;3.58;;;0.70;;
85318;SDS011;75722;49.004;12.120;2024-02-23T10:02:23;0.77;;;0.50;;
85318;SDS011;75722;49.004;12.120;2024-02-23T10:04:49;1.67;;;0.43;;
85318;SDS011;75722;49.004;12.120;2024-02-23T10:07:18;0.80;;;0.55;;
85318;SDS011;75722;49.004;12.120;2024-02-23T10:09:43;1.27;;;0.40;;
85318;SDS011;75722;49.004;12.120;2024-02-23T10:12:08;1.80;;;0.70;;
85318;SDS011;75722;49.004;12.120;2024-02-23T10:14:34;2.70;;;0.38;;
85318;SDS011;75722;49.004;12.120;2024-02-23T10:16:59;2.07;;;0.60;;
85318;SDS011;75722;49.004;12.120;2024-02-23T10:19:26;1.70;;;0.60;;
85318;SDS011;75722;49.004;12.120;2024-02-23T10:21:54;0.70;;;0.40;;
85318;SDS011;75722;49.004;12.120;2024-02-23T10:24:20;1.95;;;0.60;;
85318;SDS011;75722;49.004;12.120;2024-02-23T10:26:46;1.38;;;0.30;;
85318;SDS011;75722;49.004;12.120;2024-02-23T10:29:11;3.40;;;0.60;;
85318;SDS011;75722;49.004;12.120;2024-02-23T10:31:37;2.40;;;0.50;;
85318;SDS011;75722;49.004;12.120;2024-02-23T10:34:07;0.75;;;0.50;;
85318;SDS011;75722;49.004;12.120;2024-02-23T10:36:43;1.52;;;0.50;;
85318;SDS011;75722;49.004;12.120;2024-02-23T10:39:10;1.80;;;0.47;;
85318;SDS011;75722;49.004;12.120;2024-02-23T10:41:37;1.48;;;0.60;;
85318;SDS011;75722;49.004;12.120;2024-02-23T10:44:07;0.80;;;0.40;;
85318;SDS011;75722;49.004;12.120;2024-02-23T10:46:34;0.38;;;0.35;;
85318;SDS011;75722;49.004;12.120;2024-02-23T10:49:00;0.32;;;0.30;;
85318;SDS011;75722;49.004;12.120;2024-02-23T10:51:26;1.05;;;0.38;;
85318;SDS011;75722;49.004;12.120;2024-02-23T10:53:52;1.38;;;0.40;;
85318;SDS011;75722;49.004;12.120;2024-02-23T10:56:18;0.40;;;0.40;;
85318;SDS011;75722;49.004;12.120;2024-02-23T10:58:44;0.60;;;0.43;;
85318;SDS011;75722;49.004;12.120;2024-02-23T11:01:10;0.75;;;0.50;;
85318;SDS011;75722;49.004;12.120;2024-02-23T11:03:37;0.73;;;0.30;;
85318;SDS011;75722;49.004;12.120;2024-02-23T11:06:06;0.47;;;0.40;;
85318;SDS011;75722;49.004;12.120;2024-02-23T11:08:32;1.70;;;0.70;;
85318;SDS011;75722;49.004;12.120;2024-02-23T11:11:06;0.75;;;0.30;;
85318;SDS011;75722;49.004;12.120;2024-02-23T11:13:38;1.05;;;0.50;;
85318;SDS011;75722;49.004;12.120;2024-02-23T11:16:06;2.38;;;0.50;;
85318;SDS011;75722;49.004;12.120;2024-02-23T11:18:36;0.73;;;0.38;;
85318;SDS011;75722;49.004;12.120;2024-02-23T11:21:04;1.98;;;0.60;;
85318;SDS011;75722;49.004;12.120;2024-02-23T11:23:43;1.70;;;0.43;;
85318;SDS011;75722;49.004;12.120;2024-02-23T11:26:13;1.40;;;0.57;;
85318;SDS011;75722;49.004;12.120;2024-02-23T11:28:42;0.32;;;0.25;;
85318;SDS011;75722;49.004;12.120;2024-02-23T11:31:15;1.63;;;0.50;;
85318;SDS011;75722;49.004;12.120;2024-02-23T11:33:53;0.95;;;0.50;;
85318;SDS011;75722;49.004;12.120;2024-02-23T11:36:28;0.75;;;0.50;;
85318;SDS011;75722;49.004;12.120;2024-02-23T11:38:56;2.78;;;2.00;;
85318;SDS011;75722;49.004;12.120;2024-02-23T11:41:22;4.13;;;1.73;;
85318;SDS011;75722;49.004;12.120;2024-02-23T11:43:50;2.15;;;0.43;;
85318;SDS011;75722;49.004;12.120;2024-02-23T11:46:16;1.50;;;0.60;;
85318;SDS011;75722;49.004;12.120;2024-02-23T11:48:42;0.40;;;0.40;;
85318;SDS011;75722;49.004;12.120;2024-02-23T11:51:08;0.43;;;0.20;;
85318;SDS011;75722;49.004;12.120;2024-02-23T11:53:36;0.47;;;0.30;;
85318;SDS011;75722;49.004;12.120;2024-02-23T11:56:03;1.45;;;0.50;;
85318;SDS011;75722;49.004;12.120;2024-02-23T11:58:32;0.50;;;0.35;;
85318;SDS011;75722;49.004;12.120;2024-02-23T12:00:59;0.50;;;0.50;;
85318;SDS011;75722;49.004;12.120;2024-02-23T12:03:27;1.65;;;0.55;;
85318;SDS011;75722;49.004;12.120;2024-02-23T12:06:02;0.32;;;0.32;;
85318;SDS011;75722;49.004;12.120;2024-02-23T12:08:29;1.00;;;0.43;;
85318;SDS011;75722;49.004;12.120;2024-02-23T12:11:02;0.30;;;0.30;;
85318;SDS011;75722;49.004;12.120;2024-02-23T12:13:29;1.45;;;0.50;;
85318;SDS011;75722;49.004;12.120;2024-02-23T12:15:54;1.77;;;0.43;;
85318;SDS011;75722;49.004;12.120;2024-02-23T12:18:23;0.75;;;0.47;;
85318;SDS011;75722;49.004;12.120;2024-02-23T12:20:52;0.60;;;0.25;;
85318;SDS011;75722;49.004;12.120;2024-02-23T12:23:18;0.82;;;0.45;;
85318;SDS011;75722;49.004;12.120;2024-02-23T12:28:39;1.25;;;0.57;;
85318;SDS011;75722;49.004;12.120;2024-02-23T12:31:05;1.42;;;0.47;;
85318;SDS011;75722;49.004;12.120;2024-02-23T12:33:32;1.20;;;0.57;;
85318;SDS011;75722;49.004;12.120;2024-02-23T12:35:59;1.13;;;0.32;;
85318;SDS011;75722;49.004;12.120;2024-02-23T12:38:26;1.83;;;0.70;;
85318;SDS011;75722;49.004;12.120;2024-02-23T12:40:51;1.00;;;0.43;;
85318;SDS011;75722;49.004;12.120;2024-02-23T12:43:17;1.60;;;0.57;;
85318;SDS011;75722;49.004;12.120;2024-02-23T12:45:43;1.48;;;0.30;;
85318;SDS011;75722;49.004;12.120;2024-02-23T12:48:14;0.80;;;0.35;;
85318;SDS011;75722;49.004;12.120;2024-02-23T12:50:39;2.05;;;0.30;;
85318;SDS011;75722;49.004;12.120;2024-02-23T12:53:07;1.13;;;0.40;;
85318;SDS011;75722;49.004;12.120;2024-02-23T12:55:33;2.17;;;0.50;;
85318;SDS011;75722;49.004;12.120;2024-02-23T12:57:59;0.50;;;0.28;;
85318;SDS011;75722;49.004;12.120;2024-02-23T13:00:24;0.75;;;0.32;;
85318;SDS011;75722;49.004;12.120;2024-02-23T13:02:49;0.20;;;0.20;;
85318;SDS011;75722;49.004;12.120;2024-02-23T13:05:15;0.43;;;0.32;;
85318;SDS011;75722;49.004;12.120;2024-02-23T13:07:41;2.58;;;0.50;;
85318;SDS011;75722;49.004;12.120;2024-02-23T13:10:07;2.30;;;0.40;;
85318;SDS011;75722;49.004;12.120;2024-02-23T13:12:33;0.52;;;0.30;;
85318;SDS011;75722;49.004;12.120;2024-02-23T13:14:58;0.95;;;0.50;;
85318;SDS011;75722;49.004;12.120;2024-02-23T13:17:24;0.85;;;0.50;;
85318;SDS011;75722;49.004;12.120;2024-02-23T13:19:49;2.53;;;0.40;;
85318;SDS011;75722;49.004;12.120;2024-02-23T13:22:14;1.25;;;0.40;;
85318;SDS011;75722;49.004;12.120;2024-02-23T13:24:40;0.60;;;0.40;;
85318;SDS011;75722;49.004;12.120;2024-02-23T13:27:05;0.90;;;0.50;;
85318;SDS011;75722;49.004;12.120;2024-02-23T13:29:31;3.40;;;0.50;;
85318;SDS011;75722;49.004;12.120;2024-02-23T13:31:56;1.17;;;0.47;;
85318;SDS011;75722;49.004;12.120;2024-02-23T13:34:22;0.60;;;0.40;;
85318;SDS011;75722;49.004;12.120;2024-02-23T13:36:47;3.65;;;0.50;;
85318;SDS011;75722;49.004;12.120;2024-02-23T13:39:14;0.93;;;0.40;;
85318;SDS011;75722;49.004;12.120;2024-02-23T13:41:40;1.23;;;0.50;;
85318;SDS011;75722;49.004;12.120;2024-02-23T13:44:06;0.70;;;0.40;;
85318;SDS011;75722;49.004;12.120;2024-02-23T13:46:31;1.25;;;0.80;;
85318;SDS011;75722;49.004;12.120;2024-02-23T13:49:03;1.02;;;0.40;;
85318;SDS011;75722;49.004;12.120;2024-02-23T13:51:30;2.35;;;0.50;;
85318;SDS011;75722;49.004;12.120;2024-02-23T13:53:57;1.40;;;0.68;;
85318;SDS011;75722;49.004;12.120;2024-02-23T13:56:22;1.30;;;0.60;;
85318;SDS011;75722;49.004;12.120;2024-02-23T13:58:48;0.55;;;0.50;;
85318;SDS011;75722;49.004;12.120;2024-02-23T14:01:14;3.15;;;0.77;;
85318;SDS011;75722;49.004;12.120;2024-02-23T14:03:39;1.42;;;0.50;;
85318;SDS011;75722;49.004;12.120;2024-02-23T14:06:05;2.38;;;0.73;;
85318;SDS011;75722;49.004;12.120;2024-02-23T14:08:30;0.55;;;0.43;;
85318;SDS011;75722;49.004;12.120;2024-02-23T14:10:58;1.05;;;0.65;;
85318;SDS011;75722;49.004;12.120;2024-02-23T14:13:24;3.13;;;0.90;;
85318;SDS011;75722;49.004;12.120;2024-02-23T14:15:49;4.88;;;0.60;;
85318;SDS011;75722;49.004;12.120;2024-02-23T14:18:15;2.42;;;0.80;;
85318;SDS011;75722;49.004;12.120;2024-02-23T14:20:40;2.20;;;0.70;;
85318;SDS011;75722;49.004;12.120;2024-02-23T14:23:05;7.13;;;1.10;;
85318;SDS011;75722;49.004;12.120;2024-02-23T14:25:31;5.23;;;1.07;;
85318;SDS011;75722;49.004;12.120;2024-02-23T14:27:56;3.10;;;0.60;;
85318;SDS011;75722;49.004;12.120;2024-02-23T14:30:21;2.47;;;0.60;;